Time;durP1;ratioP1;P1;durP2;ratioP2;P2;SDS_P1;SDS_P2;PMS_P1;PMS_P2;Temp;Humidity;BMP_temperature;BMP_pressure;BME280_temperature;BME280_humidity;BME280_pressure;Samples;Min_cycle;Max_cycle;Signal;HPM_P1;HPM_P2
2024/02/03 03:03:59;;;;;;;8.80;2.33;;;;;;;;;;5048335;27;20584;-65
2024/02/03 03:06:26;;;;;;;9.48;1.98;;;;;;;;;;5049441;28;20192;-64
2024/02/03 03:08:53;;;;;;;9.43;2.25;;;;;;;;;;5051565;28;20057;-64
2024/02/03 03:11:20;;;;;;;5.95;2.35;;;;;;;;;;5036075;28;20056;-64
2024/02/03 03:13:47;;;;;;;7.45;2.95;;;;;;;;;;5039374;28;20053;-63
2024/02/03 03:16:14;;;;;;;7.50;2.45;;;;;;;;;;5038341;28;20057;-64
2024/02/03 03:18:40;;;;;;;6.50;2.15;;;;;;;;;;5031120;28;20142;-64
2024/02/03 03:21:09;;;;;;;6.53;2.33;;;;;;;;;;5035539;28;20074;-65
2024/02/03 03:23:36;;;;;;;8.52;2.47;;;;;;;;;;5024059;28;20433;-66
2024/02/03 03:26:02;;;;;;;5.82;2.45;;;;;;;;;;5036057;28;20142;-64
2024/02/03 03:28:29;;;;;;;5.40;2.42;;;;;;;;;;5049103;28;20181;-65
2024/02/03 03:30:56;;;;;;;6.32;2.28;;;;;;;;;;5036632;28;20056;-64
2024/02/03 03:33:23;;;;;;;8.88;2.72;;;;;;;;;;5029762;28;20068;-63
2024/02/03 03:35:50;;;;;;;8.75;3.00;;;;;;;;;;5028719;28;21136;-64
2024/02/03 03:38:18;;;;;;;7.63;2.90;;;;;;;;;;5036466;28;20053;-64
2024/02/03 03:40:44;;;;;;;15.82;2.70;;;;;;;;;;5031773;28;20211;-64
2024/02/03 03:43:11;;;;;;;3.80;2.05;;;;;;;;;;5043593;28;20053;-64
2024/02/03 03:45:38;;;;;;;6.53;2.67;;;;;;;;;;5039562;28;20099;-64
2024/02/03 03:48:05;;;;;;;14.18;3.15;;;;;;;;;;5054597;28;20057;-66
2024/02/03 03:50:31;;;;;;;8.70;3.05;;;;;;;;;;5048163;28;20071;-63
2024/02/03 03:52:58;;;;;;;8.27;2.40;;;;;;;;;;5051904;28;20044;-64
2024/02/03 03:55:27;;;;;;;7.95;2.80;;;;;;;;;;5054239;28;20120;-64
2024/02/03 03:57:53;;;;;;;5.35;2.38;;;;;;;;;;5048272;28;20056;-65
2024/02/03 04:00:21;;;;;;;10.13;3.00;;;;;;;;;;5053607;28;20080;-63
2024/02/03 04:02:47;;;;;;;9.75;2.42;;;;;;;;;;5042827;28;20049;-64
2024/02/03 04:05:14;;;;;;;6.95;2.33;;;;;;;;;;5034517;28;20077;-65
2024/02/03 04:07:41;;;;;;;4.20;1.95;;;;;;;;;;5026354;28;20053;-64
2024/02/03 04:10:08;;;;;;;4.97;2.15;;;;;;;;;;5034502;28;20127;-64
2024/02/03 04:12:36;;;;;;;4.88;2.00;;;;;;;;;;5035792;28;20073;-65
2024/02/03 04:15:03;;;;;;;7.78;2.08;;;;;;;;;;5042744;28;20045;-63
2024/02/03 04:17:30;;;;;;;13.27;2.50;;;;;;;;;;5039320;28;20111;-64
2024/02/03 04:19:57;;;;;;;11.23;2.33;;;;;;;;;;5039107;28;20061;-64
2024/02/03 04:22:23;;;;;;;9.32;1.92;;;;;;;;;;5033686;28;20044;-64
2024/02/03 04:24:50;;;;;;;7.07;1.95;;;;;;;;;;5039690;28;20053;-63
2024/02/03 04:27:17;;;;;;;5.85;2.03;;;;;;;;;;5038997;28;20045;-64
2024/02/03 04:29:45;;;;;;;9.82;2.10;;;;;;;;;;5026254;28;20536;-64
2024/02/03 04:32:12;;;;;;;10.63;2.50;;;;;;;;;;5029241;28;20053;-66
2024/02/03 04:34:39;;;;;;;5.35;1.42;;;;;;;;;;5025788;28;20044;-65
2024/02/03 04:37:13;;;;;;;7.10;1.85;;;;;;;;;;5027508;28;20204;-64
2024/02/03 04:39:42;;;;;;;7.10;1.98;;;;;;;;;;5018979;28;20057;-64
2024/02/03 04:42:09;;;;;;;4.88;1.70;;;;;;;;;;5031814;28;20048;-64
2024/02/03 04:44:35;;;;;;;6.00;2.00;;;;;;;;;;5039155;28;20140;-64
2024/02/03 04:47:04;;;;;;;9.05;1.90;;;;;;;;;;5042702;28;20140;-64
2024/02/03 04:49:32;;;;;;;8.13;2.13;;;;;;;;;;5033354;28;20080;-65
2024/02/03 04:52:00;;;;;;;6.70;1.80;;;;;;;;;;5016595;28;20136;-64
2024/02/03 04:54:27;;;;;;;4.63;1.52;;;;;;;;;;5036857;28;20132;-64
2024/02/03 04:56:54;;;;;;;8.98;1.98;;;;;;;;;;5039462;28;20053;-64
2024/02/03 04:59:20;;;;;;;5.75;1.50;;;;;;;;;;5038614;28;20084;-64
2024/02/03 05:01:47;;;;;;;5.32;1.52;;;;;;;;;;5028577;28;20071;-64
2024/02/03 05:04:15;;;;;;;5.25;1.73;;;;;;;;;;5037909;28;20147;-63
2024/02/03 05:06:41;;;;;;;2.85;1.35;;;;;;;;;;5014981;28;20104;-64
2024/02/03 05:09:08;;;;;;;6.82;1.80;;;;;;;;;;5032761;28;20057;-64
2024/02/03 05:11:35;;;;;;;5.75;1.75;;;;;;;;;;5014825;28;20053;-64
2024/02/03 05:14:02;;;;;;;6.57;1.75;;;;;;;;;;5036297;28;20096;-64
2024/02/03 05:16:28;;;;;;;13.38;1.85;;;;;;;;;;5037186;28;20144;-64
2024/02/03 05:18:55;;;;;;;4.72;1.90;;;;;;;;;;5041183;28;20095;-64
2024/02/03 05:21:26;;;;;;;7.65;2.00;;;;;;;;;;5039348;28;20057;-64
2024/02/03 05:23:53;;;;;;;7.22;2.10;;;;;;;;;;5027440;28;21541;-64
2024/02/03 05:26:19;;;;;;;7.57;1.92;;;;;;;;;;5039623;28;20057;-65
2024/02/03 05:28:46;;;;;;;5.72;1.83;;;;;;;;;;5040801;28;20064;-64
2024/02/03 05:31:20;;;;;;;6.60;1.83;;;;;;;;;;5039873;28;20049;-64
2024/02/03 05:33:46;;;;;;;3.65;1.45;;;;;;;;;;5028114;28;20068;-63
2024/02/03 05:36:13;;;;;;;12.00;2.08;;;;;;;;;;5038386;28;20121;-63
2024/02/03 05:38:41;;;;;;;3.78;1.40;;;;;;;;;;5036955;28;20077;-64
2024/02/03 05:41:08;;;;;;;6.63;1.65;;;;;;;;;;5039116;28;20084;-64
2024/02/03 05:43:35;;;;;;;11.98;1.77;;;;;;;;;;5020590;28;20056;-63
2024/02/03 05:46:01;;;;;;;7.13;1.60;;;;;;;;;;5037847;28;20135;-64
2024/02/03 05:48:28;;;;;;;5.70;1.60;;;;;;;;;;5039606;28;20052;-65
2024/02/03 05:50:55;;;;;;;10.43;1.70;;;;;;;;;;5037036;28;20136;-64
2024/02/03 05:53:22;;;;;;;9.98;2.00;;;;;;;;;;5037276;28;20057;-64
2024/02/03 05:55:50;;;;;;;7.13;1.67;;;;;;;;;;5036703;28;20053;-64
2024/02/03 05:58:18;;;;;;;9.02;1.50;;;;;;;;;;5040772;28;20076;-64
2024/02/03 06:00:45;;;;;;;6.13;1.40;;;;;;;;;;5040040;28;20045;-64
2024/02/03 06:03:11;;;;;;;6.20;1.63;;;;;;;;;;5010869;28;20074;-65
2024/02/03 06:05:38;;;;;;;6.45;1.67;;;;;;;;;;5015650;28;20088;-66
2024/02/03 06:08:05;;;;;;;4.20;1.40;;;;;;;;;;5019362;28;20139;-64
2024/02/03 06:10:32;;;;;;;10.20;1.80;;;;;;;;;;5009943;28;20143;-65
2024/02/03 06:12:59;;;;;;;7.50;1.80;;;;;;;;;;5019721;28;20063;-65
2024/02/03 06:15:26;;;;;;;5.85;1.40;;;;;;;;;;5027570;28;20143;-63
2024/02/03 06:17:53;;;;;;;2.65;1.30;;;;;;;;;;5039617;28;20060;-62
2024/02/03 06:20:19;;;;;;;5.65;1.48;;;;;;;;;;5033981;28;20132;-63
2024/02/03 06:22:46;;;;;;;4.90;1.40;;;;;;;;;;5024734;28;20071;-63
2024/02/03 06:25:13;;;;;;;8.35;1.73;;;;;;;;;;5054726;28;20113;-64
2024/02/03 06:27:40;;;;;;;5.68;1.65;;;;;;;;;;5027008;28;20103;-64
2024/02/03 06:30:09;;;;;;;6.07;1.33;;;;;;;;;;5056998;28;20084;-63
2024/02/03 06:32:35;;;;;;;4.65;1.55;;;;;;;;;;5025650;28;20099;-62
2024/02/03 06:35:02;;;;;;;6.63;1.67;;;;;;;;;;5050426;28;20064;-63
2024/02/03 06:37:29;;;;;;;5.50;1.58;;;;;;;;;;5055734;28;20044;-63
2024/02/03 06:39:55;;;;;;;4.50;1.73;;;;;;;;;;5039722;28;20203;-63
2024/02/03 06:42:22;;;;;;;9.25;1.77;;;;;;;;;;5053154;28;20057;-62
2024/02/03 06:44:49;;;;;;;7.97;1.90;;;;;;;;;;5062494;28;20048;-63
2024/02/03 06:47:17;;;;;;;7.75;1.88;;;;;;;;;;5042726;28;20083;-61
2024/02/03 06:49:43;;;;;;;5.75;1.70;;;;;;;;;;5033274;28;20149;-62
2024/02/03 06:52:10;;;;;;;7.05;2.22;;;;;;;;;;5053674;28;20149;-63
2024/02/03 06:54:37;;;;;;;10.35;2.17;;;;;;;;;;5039762;28;20225;-65
2024/02/03 06:57:04;;;;;;;6.53;1.80;;;;;;;;;;5039307;28;20053;-63
2024/02/03 06:59:31;;;;;;;4.15;1.55;;;;;;;;;;5052363;28;20064;-64
2024/02/03 07:01:57;;;;;;;9.75;2.03;;;;;;;;;;5030324;28;20053;-63
2024/02/03 07:04:25;;;;;;;6.07;1.88;;;;;;;;;;5039741;28;20115;-63
2024/02/03 07:06:52;;;;;;;6.65;1.88;;;;;;;;;;5011107;28;20045;-64
2024/02/03 07:09:19;;;;;;;10.32;2.08;;;;;;;;;;5017485;28;20088;-63
2024/02/03 07:11:45;;;;;;;6.53;1.85;;;;;;;;;;5012217;28;20068;-63
2024/02/03 07:14:12;;;;;;;9.07;2.65;;;;;;;;;;5021776;28;20114;-63
2024/02/03 07:16:39;;;;;;;8.05;1.88;;;;;;;;;;5029762;28;20050;-63
2024/02/03 07:19:05;;;;;;;8.00;2.00;;;;;;;;;;5020512;28;20133;-63
2024/02/03 07:21:34;;;;;;;9.05;2.28;;;;;;;;;;5015393;28;20050;-64
2024/02/03 07:24:00;;;;;;;9.07;2.42;;;;;;;;;;5029864;28;20049;-63
2024/02/03 07:26:27;;;;;;;10.18;2.70;;;;;;;;;;5037144;28;20069;-64
2024/02/03 07:28:53;;;;;;;11.63;2.17;;;;;;;;;;5038157;28;20130;-63
2024/02/03 07:31:27;;;;;;;9.85;2.78;;;;;;;;;;5037188;28;20132;-63
2024/02/03 07:33:54;;;;;;;6.20;2.13;;;;;;;;;;5031077;28;21136;-63
2024/02/03 07:36:21;;;;;;;13.00;2.83;;;;;;;;;;5038752;28;20057;-64
2024/02/03 07:38:49;;;;;;;16.92;3.03;;;;;;;;;;5037774;28;20068;-63
2024/02/03 07:41:16;;;;;;;6.07;2.88;;;;;;;;;;5036503;28;20084;-62
2024/02/03 07:43:42;;;;;;;12.13;3.05;;;;;;;;;;5023296;28;20064;-64
2024/02/03 07:46:09;;;;;;;7.80;2.85;;;;;;;;;;5039205;28;20049;-63
2024/02/03 07:48:36;;;;;;;8.23;2.83;;;;;;;;;;5059076;28;20554;-63
2024/02/03 07:51:03;;;;;;;12.10;3.40;;;;;;;;;;5040863;28;20080;-64
2024/02/03 07:53:30;;;;;;;16.98;5.32;;;;;;;;;;5032288;28;20049;-65
2024/02/03 07:55:58;;;;;;;11.07;4.70;;;;;;;;;;5052591;28;20049;-63
2024/02/03 07:58:25;;;;;;;13.23;3.40;;;;;;;;;;5032301;28;20100;-63
2024/02/03 08:00:51;;;;;;;14.25;3.90;;;;;;;;;;5031568;28;20103;-63
2024/02/03 08:03:18;;;;;;;11.80;3.22;;;;;;;;;;5021863;28;20156;-63
2024/02/03 08:05:45;;;;;;;10.30;3.13;;;;;;;;;;5027419;28;20077;-64
2024/02/03 08:08:11;;;;;;;11.48;3.45;;;;;;;;;;5033001;28;20056;-64
2024/02/03 08:10:38;;;;;;;14.90;2.95;;;;;;;;;;5032935;28;20117;-63
2024/02/03 08:13:06;;;;;;;11.00;3.15;;;;;;;;;;5019530;28;20038;-63
2024/02/03 08:15:33;;;;;;;17.48;3.88;;;;;;;;;;5010537;28;20045;-64
2024/02/03 08:17:59;;;;;;;10.73;3.50;;;;;;;;;;5016558;28;20049;-63
2024/02/03 08:20:26;;;;;;;12.77;3.15;;;;;;;;;;5016930;28;20049;-64
2024/02/03 08:22:53;;;;;;;8.57;3.08;;;;;;;;;;5015126;28;20133;-64
2024/02/03 08:25:23;;;;;;;9.10;2.97;;;;;;;;;;5029111;28;20053;-63
2024/02/03 08:27:50;;;;;;;16.35;3.80;;;;;;;;;;5034648;28;20057;-63
2024/02/03 08:30:18;;;;;;;13.98;3.20;;;;;;;;;;5035488;28;20122;-64
2024/02/03 08:32:45;;;;;;;13.05;2.92;;;;;;;;;;5023375;28;20041;-64
2024/02/03 08:35:11;;;;;;;12.63;4.80;;;;;;;;;;5035080;28;20053;-63
2024/02/03 08:37:38;;;;;;;9.57;3.40;;;;;;;;;;5024169;28;20119;-65
2024/02/03 08:40:08;;;;;;;12.73;3.55;;;;;;;;;;5029256;28;20065;-64
2024/02/03 08:42:35;;;;;;;14.82;3.30;;;;;;;;;;5026998;28;20124;-64
2024/02/03 08:45:02;;;;;;;13.75;3.65;;;;;;;;;;5032551;28;20052;-64
2024/02/03 08:47:45;;;;;;;10.07;3.10;;;;;;;;;;5040101;28;20056;-64
2024/02/03 08:50:12;;;;;;;8.90;3.00;;;;;;;;;;5021964;28;20127;-64
2024/02/03 08:52:39;;;;;;;13.30;2.72;;;;;;;;;;5029028;28;20063;-64
2024/02/03 08:55:06;;;;;;;7.38;3.38;;;;;;;;;;5010785;28;20061;-63
2024/02/03 08:57:34;;;;;;;18.88;3.35;;;;;;;;;;5014901;28;20041;-65
2024/02/03 09:00:01;;;;;;;15.02;3.05;;;;;;;;;;5018764;28;20057;-63
2024/02/03 09:02:32;;;;;;;8.65;2.80;;;;;;;;;;5016941;28;20052;-63
2024/02/03 09:04:59;;;;;;;11.43;3.05;;;;;;;;;;5040068;28;20065;-64
2024/02/03 09:07:26;;;;;;;10.63;2.92;;;;;;;;;;5033615;28;20061;-65
2024/02/03 09:09:53;;;;;;;9.43;3.28;;;;;;;;;;5021840;28;20116;-64
2024/02/03 09:12:20;;;;;;;10.88;2.90;;;;;;;;;;5033497;28;20041;-63
2024/02/03 09:14:47;;;;;;;12.43;2.50;;;;;;;;;;5027094;28;20055;-63
2024/02/03 09:17:14;;;;;;;7.35;2.58;;;;;;;;;;5036858;28;20126;-63
2024/02/03 09:19:42;;;;;;;13.65;3.05;;;;;;;;;;5029988;28;20084;-65
2024/02/03 09:22:14;;;;;;;22.77;2.85;;;;;;;;;;5030026;28;20057;-63
2024/02/03 09:24:41;;;;;;;9.10;2.95;;;;;;;;;;5033607;28;20067;-63
2024/02/03 09:27:08;;;;;;;9.52;2.63;;;;;;;;;;5009583;28;20117;-64
2024/02/03 09:29:39;;;;;;;7.35;2.60;;;;;;;;;;5034416;28;20048;-64
2024/02/03 09:32:06;;;;;;;7.93;3.00;;;;;;;;;;5025606;28;20040;-64
2024/02/03 09:34:36;;;;;;;10.43;3.10;;;;;;;;;;5016619;28;20045;-64
2024/02/03 09:37:04;;;;;;;13.23;2.85;;;;;;;;;;5019224;28;20061;-64
2024/02/03 09:39:36;;;;;;;9.45;2.72;;;;;;;;;;5035696;28;20076;-64
2024/02/03 09:42:06;;;;;;;14.20;3.25;;;;;;;;;;5018920;28;20059;-64
2024/02/03 09:44:56;;;;;;;12.65;3.72;;;;;;;;;;5038407;28;20196;-63
2024/02/03 09:47:50;;;;;;;14.70;4.90;;;;;;;;;;5042018;28;20044;-64
2024/02/03 09:50:16;;;;;;;14.38;3.20;;;;;;;;;;5052290;28;20108;-64
2024/02/03 09:52:46;;;;;;;24.02;4.18;;;;;;;;;;5014278;28;20371;-64
2024/02/03 09:55:12;;;;;;;19.63;4.07;;;;;;;;;;5027298;28;20123;-65
2024/02/03 09:57:39;;;;;;;13.27;3.80;;;;;;;;;;5041446;28;20144;-64
2024/02/03 10:00:08;;;;;;;9.07;3.13;;;;;;;;;;5027656;28;20063;-64
2024/02/03 10:02:36;;;;;;;11.65;2.75;;;;;;;;;;5012971;28;20045;-65
2024/02/03 10:05:07;;;;;;;8.45;2.33;;;;;;;;;;5033194;28;20148;-64
2024/02/03 10:07:34;;;;;;;8.68;2.95;;;;;;;;;;5014123;28;20053;-64
2024/02/03 10:10:11;;;;;;;10.30;2.85;;;;;;;;;;5026182;28;20056;-64
2024/02/03 10:12:38;;;;;;;8.03;2.70;;;;;;;;;;5017069;28;20125;-63
2024/02/03 10:15:06;;;;;;;7.35;2.53;;;;;;;;;;5030844;28;20068;-64
2024/02/03 10:17:41;;;;;;;11.48;3.40;;;;;;;;;;5034332;28;20391;-64
2024/02/03 10:20:08;;;;;;;10.35;2.80;;;;;;;;;;5032131;28;20061;-64
2024/02/03 10:22:36;;;;;;;9.20;3.03;;;;;;;;;;5027964;28;20120;-64
2024/02/03 10:25:08;;;;;;;7.33;2.40;;;;;;;;;;5028560;28;20061;-64
2024/02/03 10:27:36;;;;;;;12.13;2.75;;;;;;;;;;5029613;28;20289;-64
2024/02/03 10:30:04;;;;;;;15.48;2.65;;;;;;;;;;5022739;28;20053;-64
2024/02/03 10:32:31;;;;;;;9.07;2.83;;;;;;;;;;5030065;28;20041;-64
2024/02/03 10:34:57;;;;;;;13.75;2.70;;;;;;;;;;5036013;28;20114;-64
2024/02/03 10:37:27;;;;;;;18.63;4.55;;;;;;;;;;5031402;28;20049;-64
2024/02/03 10:39:53;;;;;;;11.00;3.03;;;;;;;;;;5034206;28;20059;-64
2024/02/03 10:42:21;;;;;;;9.75;3.08;;;;;;;;;;5016834;28;20070;-65
2024/02/03 10:44:50;;;;;;;12.77;3.60;;;;;;;;;;5015751;28;20053;-66
2024/02/03 10:47:22;;;;;;;10.38;2.85;;;;;;;;;;5010697;28;20111;-64
2024/02/03 10:49:50;;;;;;;9.32;2.60;;;;;;;;;;5010184;28;20099;-64
2024/02/03 10:52:20;;;;;;;7.60;2.45;;;;;;;;;;5010669;28;20166;-63
2024/02/03 10:54:51;;;;;;;12.68;2.67;;;;;;;;;;5024349;28;20053;-63
2024/02/03 10:57:18;;;;;;;13.82;3.08;;;;;;;;;;5025033;28;20056;-64
2024/02/03 10:59:45;;;;;;;17.35;3.72;;;;;;;;;;5032820;28;20053;-63
2024/02/03 11:02:19;;;;;;;9.13;2.30;;;;;;;;;;5016151;28;20047;-63
2024/02/03 11:04:48;;;;;;;10.15;3.42;;;;;;;;;;5031475;28;20053;-64
2024/02/03 11:07:22;;;;;;;10.32;2.63;;;;;;;;;;5029162;28;20076;-64
2024/02/03 11:09:52;;;;;;;13.05;2.92;;;;;;;;;;5024167;28;20076;-64
2024/02/03 11:12:20;;;;;;;7.53;2.17;;;;;;;;;;5035120;28;20059;-64
2024/02/03 11:14:47;;;;;;;6.68;2.50;;;;;;;;;;5031200;28;20049;-64
2024/02/03 11:17:15;;;;;;;7.55;2.45;;;;;;;;;;5034811;28;20167;-64
2024/02/03 11:20:06;;;;;;;18.65;5.95;;;;;;;;;;5027876;28;20168;-64
2024/02/03 11:22:35;;;;;;;9.73;2.75;;;;;;;;;;5020163;28;20148;-64
2024/02/03 11:25:06;;;;;;;8.85;2.83;;;;;;;;;;5040656;28;20355;-63
2024/02/03 11:27:33;;;;;;;9.32;3.05;;;;;;;;;;5028054;28;20052;-65
2024/02/03 11:30:08;;;;;;;9.13;2.53;;;;;;;;;;5038090;28;20158;-63
2024/02/03 11:32:35;;;;;;;9.80;2.38;;;;;;;;;;5034024;28;20055;-64
2024/02/03 11:35:07;;;;;;;9.95;2.35;;;;;;;;;;5037105;28;20108;-63
2024/02/03 11:37:36;;;;;;;7.28;2.35;;;;;;;;;;5032036;28;20049;-64
2024/02/03 11:40:07;;;;;;;5.68;2.22;;;;;;;;;;5033575;28;20056;-63
2024/02/03 11:42:34;;;;;;;7.55;2.55;;;;;;;;;;5020452;28;20139;-63
2024/02/03 11:45:13;;;;;;;11.77;5.13;;;;;;;;;;5039983;28;20041;-65
2024/02/03 11:47:40;;;;;;;6.95;2.30;;;;;;;;;;5019082;28;20053;-64
2024/02/03 11:50:09;;;;;;;4.63;2.08;;;;;;;;;;5031371;28;20054;-64
2024/02/03 11:52:36;;;;;;;5.60;2.05;;;;;;;;;;5032554;28;20072;-64
2024/02/03 11:55:08;;;;;;;5.45;1.98;;;;;;;;;;5032541;28;20049;-64
2024/02/03 11:57:35;;;;;;;3.90;1.48;;;;;;;;;;5038288;28;20064;-65
2024/02/03 12:00:09;;;;;;;9.68;2.08;;;;;;;;;;5040448;28;20045;-64
2024/02/03 12:02:37;;;;;;;13.50;2.13;;;;;;;;;;5029744;28;20049;-65
2024/02/03 12:05:04;;;;;;;9.30;3.20;;;;;;;;;;5020817;28;20041;-65
2024/02/03 12:07:33;;;;;;;10.52;2.28;;;;;;;;;;5009989;28;20053;-66
2024/02/03 12:10:00;;;;;;;6.85;1.98;;;;;;;;;;5023488;28;20081;-64
2024/02/03 12:12:26;;;;;;;7.82;2.38;;;;;;;;;;5008292;28;20084;-64
2024/02/03 12:14:53;;;;;;;8.02;2.42;;;;;;;;;;5042322;28;20084;-65
2024/02/03 12:17:36;;;;;;;;;;;;;;;;;;;;;
2024/02/03 12:20:21;;;;;;;7.72;2.30;;;;;;;;;;5032536;28;20053;-64
2024/02/03 12:22:50;;;;;;;8.30;2.10;;;;;;;;;;5012653;28;20067;-64
2024/02/03 12:25:17;;;;;;;4.13;1.63;;;;;;;;;;5037274;28;20045;-65
2024/02/03 12:27:44;;;;;;;9.65;2.75;;;;;;;;;;5048522;28;20057;-65
2024/02/03 12:30:16;;;;;;;7.05;2.28;;;;;;;;;;5056096;28;20059;-64
2024/02/03 12:32:43;;;;;;;8.98;2.30;;;;;;;;;;5038515;28;20057;-64
2024/02/03 12:35:09;;;;;;;6.88;2.08;;;;;;;;;;5031266;28;20051;-65
2024/02/03 12:37:36;;;;;;;6.55;2.28;;;;;;;;;;5029401;28;20048;-64
2024/02/03 12:40:06;;;;;;;8.05;2.22;;;;;;;;;;5035816;28;20118;-65
2024/02/03 12:42:33;;;;;;;8.40;2.50;;;;;;;;;;5037460;28;20072;-65
2024/02/03 12:45:01;;;;;;;6.03;1.98;;;;;;;;;;5028159;28;20109;-65
2024/02/03 12:47:27;;;;;;;7.95;2.33;;;;;;;;;;5053507;28;20068;-65
2024/02/03 12:49:54;;;;;;;10.52;2.13;;;;;;;;;;5031665;28;20064;-65
2024/02/03 12:52:21;;;;;;;8.68;2.67;;;;;;;;;;5054571;28;20099;-65
2024/02/03 12:54:48;;;;;;;5.93;1.88;;;;;;;;;;5036156;28;20076;-65
2024/02/03 12:57:16;;;;;;;3.30;1.38;;;;;;;;;;5041773;28;20129;-65
2024/02/03 12:59:43;;;;;;;;;;;;;;;;;;5033473;28;20143;-64
2024/02/03 13:02:10;;;;;;;3.47;1.45;;;;;;;;;;5042127;28;19973;-65
2024/02/03 13:04:37;;;;;;;3.78;1.33;;;;;;;;;;5045163;28;20052;-66
2024/02/03 13:07:04;;;;;;;4.22;1.50;;;;;;;;;;5045164;28;20052;-65
2024/02/03 13:09:32;;;;;;;10.20;4.07;;;;;;;;;;5055839;28;20056;-67
2024/02/03 13:12:01;;;;;;;6.95;2.08;;;;;;;;;;5044113;28;20115;-67
2024/02/03 13:14:29;;;;;;;4.47;1.52;;;;;;;;;;5042166;28;20060;-65
2024/02/03 13:16:56;;;;;;;4.57;1.60;;;;;;;;;;5042758;28;20060;-64
2024/02/03 13:19:23;;;;;;;6.93;1.63;;;;;;;;;;5043257;28;20064;-65
2024/02/03 13:21:49;;;;;;;4.25;1.85;;;;;;;;;;5032548;28;20052;-65
2024/02/03 13:24:20;;;;;;;5.53;2.00;;;;;;;;;;5014890;28;20056;-65
2024/02/03 13:26:46;;;;;;;4.93;1.58;;;;;;;;;;5040951;28;20091;-65
2024/02/03 13:29:13;;;;;;;5.03;1.65;;;;;;;;;;5012845;28;20116;-64
2024/02/03 13:31:41;;;;;;;3.97;1.73;;;;;;;;;;5020945;28;20059;-63
2024/02/03 13:34:08;;;;;;;7.05;2.53;;;;;;;;;;5018804;28;20056;-65
2024/02/03 13:36:39;;;;;;;5.75;1.63;;;;;;;;;;5038222;28;20147;-63
2024/02/03 13:39:06;;;;;;;4.47;2.17;;;;;;;;;;5020341;28;20053;-65
2024/02/03 13:41:40;;;;;;;21.73;6.80;;;;;;;;;;5005078;28;20089;-66
2024/02/03 13:44:07;;;;;;;10.30;4.22;;;;;;;;;;5055875;28;20053;-67
2024/02/03 13:46:34;;;;;;;7.85;2.75;;;;;;;;;;5041950;28;20098;-65
2024/02/03 13:49:05;;;;;;;8.50;3.20;;;;;;;;;;4977784;28;20153;-65
2024/02/03 13:51:34;;;;;;;6.43;2.88;;;;;;;;;;5028428;28;20126;-67
2024/02/03 13:54:02;;;;;;;5.90;2.78;;;;;;;;;;5017838;28;20143;-66
2024/02/03 13:56:29;;;;;;;5.35;2.97;;;;;;;;;;5027537;28;20051;-66
2024/02/03 13:58:56;;;;;;;8.88;2.60;;;;;;;;;;5034221;28;20059;-64
2024/02/03 14:01:24;;;;;;;4.20;2.63;;;;;;;;;;5041087;28;20063;-63
2024/02/03 14:03:51;;;;;;;7.55;2.83;;;;;;;;;;5043944;28;20052;-63
2024/02/03 14:06:19;;;;;;;6.35;3.17;;;;;;;;;;5064337;28;20136;-63
2024/02/03 14:08:47;;;;;;;10.15;2.92;;;;;;;;;;5037337;28;20063;-64
2024/02/03 14:11:14;;;;;;;6.35;2.80;;;;;;;;;;5019232;28;20123;-63
2024/02/03 14:13:43;;;;;;;7.45;3.15;;;;;;;;;;5015233;28;20060;-64
2024/02/03 14:16:11;;;;;;;9.48;3.45;;;;;;;;;;4944367;28;20045;-64
2024/02/03 14:18:39;;;;;;;13.40;5.00;;;;;;;;;;5040904;28;20056;-65
2024/02/03 14:21:06;;;;;;;7.95;3.63;;;;;;;;;;5036979;28;20183;-64
2024/02/03 14:23:35;;;;;;;5.88;3.17;;;;;;;;;;5040908;28;20053;-64
2024/02/03 14:26:03;;;;;;;10.95;4.35;;;;;;;;;;5022365;28;20044;-65
2024/02/03 14:28:30;;;;;;;11.52;4.13;;;;;;;;;;5044993;28;20106;-64
2024/02/03 14:30:57;;;;;;;17.02;5.28;;;;;;;;;;5037390;28;20080;-64
2024/02/03 14:33:24;;;;;;;15.05;5.05;;;;;;;;;;5053061;28;20079;-64
2024/02/03 14:35:52;;;;;;;9.63;4.50;;;;;;;;;;5055908;28;20052;-64
2024/02/03 14:38:25;;;;;;;9.52;3.42;;;;;;;;;;5064732;28;20048;-65
2024/02/03 14:40:56;;;;;;;8.40;3.25;;;;;;;;;;5050466;28;20060;-63
2024/02/03 14:43:28;;;;;;;7.68;3.05;;;;;;;;;;5059062;28;20112;-65
2024/02/03 14:45:59;;;;;;;8.40;2.83;;;;;;;;;;4965426;28;20053;-65
2024/02/03 14:48:27;;;;;;;10.07;2.72;;;;;;;;;;5053906;28;20065;-66
2024/02/03 14:50:56;;;;;;;12.75;3.25;;;;;;;;;;5034926;28;20056;-63
2024/02/03 14:53:26;;;;;;;10.48;3.83;;;;;;;;;;5042177;28;20101;-65
2024/02/03 14:55:56;;;;;;;11.68;3.45;;;;;;;;;;5015989;28;20052;-64
2024/02/03 14:58:23;;;;;;;7.50;3.15;;;;;;;;;;5037265;28;20060;-65
2024/02/03 15:00:50;;;;;;;12.73;3.72;;;;;;;;;;5048149;28;20063;-65
2024/02/03 15:03:17;;;;;;;10.57;3.78;;;;;;;;;;5038982;28;20048;-65
2024/02/03 15:05:43;;;;;;;10.88;3.55;;;;;;;;;;5032304;28;20152;-63
2024/02/03 15:08:11;;;;;;;7.75;3.05;;;;;;;;;;5034951;28;20064;-65
2024/02/03 15:10:39;;;;;;;7.13;3.13;;;;;;;;;;5035562;28;20056;-64
2024/02/03 15:13:08;;;;;;;8.40;3.30;;;;;;;;;;5033020;28;21985;-63
2024/02/03 15:15:37;;;;;;;9.30;3.15;;;;;;;;;;5031263;28;20098;-63
2024/02/03 15:18:06;;;;;;;12.15;3.45;;;;;;;;;;5036135;28;20053;-65
2024/02/03 15:20:35;;;;;;;12.57;2.92;;;;;;;;;;5030730;28;20144;-64
2024/02/03 15:23:09;;;;;;;10.73;3.33;;;;;;;;;;5029770;28;20057;-64
2024/02/03 15:25:36;;;;;;;7.75;2.72;;;;;;;;;;4990874;28;20052;-63
2024/02/03 15:28:02;;;;;;;9.63;3.65;;;;;;;;;;5028240;28;20144;-64
2024/02/03 15:30:33;;;;;;;16.20;3.45;;;;;;;;;;5026546;28;20057;-62
2024/02/03 15:33:02;;;;;;;6.88;3.03;;;;;;;;;;5030846;28;20272;-63
2024/02/03 15:35:31;;;;;;;14.00;3.10;;;;;;;;;;5016497;28;20049;-64
2024/02/03 15:37:58;;;;;;;8.25;3.05;;;;;;;;;;5028137;28;20063;-64
2024/02/03 15:40:30;;;;;;;7.03;2.25;;;;;;;;;;5030532;28;20052;-64
2024/02/03 15:42:57;;;;;;;8.85;2.50;;;;;;;;;;5026642;28;20063;-65
2024/02/03 15:45:24;;;;;;;7.55;2.70;;;;;;;;;;4990833;28;20112;-62
2024/02/03 15:47:52;;;;;;;8.75;2.30;;;;;;;;;;5033127;28;20132;-64
2024/02/03 15:50:19;;;;;;;8.27;2.75;;;;;;;;;;5037863;28;20051;-63
2024/02/03 15:52:46;;;;;;;8.70;2.78;;;;;;;;;;5034503;28;20064;-63
2024/02/03 15:55:14;;;;;;;12.32;3.42;;;;;;;;;;5019716;28;20136;-65
2024/02/03 15:57:41;;;;;;;8.70;2.78;;;;;;;;;;5033905;28;20144;-64
2024/02/03 16:00:08;;;;;;;9.45;2.28;;;;;;;;;;5029278;28;20069;-64
2024/02/03 16:02:36;;;;;;;9.07;2.25;;;;;;;;;;5029582;28;20139;-65
2024/02/03 16:05:10;;;;;;;8.68;2.30;;;;;;;;;;5006239;28;20060;-65
2024/02/03 16:07:37;;;;;;;6.28;2.03;;;;;;;;;;5014254;28;20140;-63
2024/02/03 16:10:11;;;;;;;10.43;2.45;;;;;;;;;;5016557;28;20037;-64
2024/02/03 16:12:41;;;;;;;11.07;1.90;;;;;;;;;;5018669;28;20073;-64
2024/02/03 16:15:09;;;;;;;7.85;2.47;;;;;;;;;;4985617;28;20167;-65
2024/02/03 16:17:39;;;;;;;13.73;2.22;;;;;;;;;;4995219;28;20068;-62
2024/02/03 16:20:11;;;;;;;6.72;1.75;;;;;;;;;;5017073;28;20060;-62
2024/02/03 16:22:38;;;;;;;7.72;1.95;;;;;;;;;;5017505;28;20057;-63
2024/02/03 16:25:05;;;;;;;8.68;1.75;;;;;;;;;;5003901;28;20062;-63
2024/02/03 16:27:32;;;;;;;12.88;1.95;;;;;;;;;;5023503;28;20057;-64
2024/02/03 16:29:59;;;;;;;16.15;4.78;;;;;;;;;;5032959;28;20143;-64
2024/02/03 16:32:25;;;;;;;9.43;2.17;;;;;;;;;;5053869;28;20056;-65
2024/02/03 16:34:55;;;;;;;10.90;2.60;;;;;;;;;;5010258;28;20065;-65
2024/02/03 16:37:23;;;;;;;14.13;2.28;;;;;;;;;;4990143;28;20056;-65
2024/02/03 16:39:50;;;;;;;10.30;2.22;;;;;;;;;;5018793;28;20042;-64
2024/02/03 16:42:16;;;;;;;10.95;2.15;;;;;;;;;;5013877;28;20057;-65
2024/02/03 16:44:43;;;;;;;7.50;1.80;;;;;;;;;;5010832;28;20069;-64
2024/02/03 16:47:10;;;;;;;10.82;2.10;;;;;;;;;;5019865;28;20067;-64
2024/02/03 16:49:37;;;;;;;4.82;1.65;;;;;;;;;;5039888;28;20064;-63
2024/02/03 16:52:04;;;;;;;9.30;1.90;;;;;;;;;;5032698;28;20133;-64
2024/02/03 16:54:32;;;;;;;7.93;1.30;;;;;;;;;;5035190;28;20067;-64
2024/02/03 16:56:59;;;;;;;9.43;1.88;;;;;;;;;;5005557;28;20406;-65
2024/02/03 16:59:25;;;;;;;14.75;2.28;;;;;;;;;;5040599;28;20116;-64
2024/02/03 17:01:52;;;;;;;7.43;1.90;;;;;;;;;;5034023;28;20064;-64
2024/02/03 17:04:19;;;;;;;13.00;1.75;;;;;;;;;;5033996;28;20087;-63
2024/02/03 17:06:48;;;;;;;13.05;1.83;;;;;;;;;;4996764;28;20127;-64
2024/02/03 17:09:14;;;;;;;10.52;1.85;;;;;;;;;;5035612;28;20175;-64
2024/02/03 17:11:42;;;;;;;10.57;1.90;;;;;;;;;;5033677;28;20148;-65
2024/02/03 17:14:09;;;;;;;7.43;1.80;;;;;;;;;;5035593;28;20041;-64
2024/02/03 17:16:36;;;;;;;10.43;2.00;;;;;;;;;;5030576;28;20045;-65
2024/02/03 17:19:05;;;;;;;10.27;1.77;;;;;;;;;;5013436;28;20346;-63
2024/02/03 17:21:32;;;;;;;8.40;1.95;;;;;;;;;;5016662;28;20049;-63
2024/02/03 17:24:00;;;;;;;6.95;1.92;;;;;;;;;;5014265;28;20053;-64
2024/02/03 17:26:27;;;;;;;4.97;2.13;;;;;;;;;;5007816;28;20052;-65
2024/02/03 17:28:58;;;;;;;7.60;2.05;;;;;;;;;;5011257;28;20072;-65
2024/02/03 17:31:24;;;;;;;10.80;2.42;;;;;;;;;;5012892;28;20061;-63
2024/02/03 17:33:51;;;;;;;10.40;2.25;;;;;;;;;;5012192;28;20061;-65
2024/02/03 17:36:18;;;;;;;14.38;2.38;;;;;;;;;;5022744;28;20084;-63
2024/02/03 17:38:46;;;;;;;9.82;2.20;;;;;;;;;;5036097;28;20161;-63
2024/02/03 17:41:13;;;;;;;;;;;;;;;;;;5035146;28;20052;-63
2024/02/03 17:43:40;;;;;;;8.27;2.00;;;;;;;;;;5037971;28;20077;-63
2024/02/03 17:46:08;;;;;;;12.07;1.98;;;;;;;;;;4983960;28;20072;-64
2024/02/03 17:48:35;;;;;;;6.80;1.92;;;;;;;;;;5002052;28;20061;-63